sensor_id;sensor_type;location;lat;lon;timestamp;temperature;humidity
16479;DHT22;8350;52.316;10.530;2024-01-15T00:00:45;1.40;99.90
16479;DHT22;8350;52.316;10.530;2024-01-15T00:03:12;1.40;99.90
16479;DHT22;8350;52.316;10.530;2024-01-15T00:05:39;1.40;99.90
16479;DHT22;8350;52.316;10.530;2024-01-15T00:08:06;1.40;99.90
16479;DHT22;8350;52.316;10.530;2024-01-15T00:10:33;1.40;99.90
16479;DHT22;8350;52.316;10.530;2024-01-15T00:13:03;1.40;99.90
16479;DHT22;8350;52.316;10.530;2024-01-15T00:15:32;1.40;99.90
16479;DHT22;8350;52.316;10.530;2024-01-15T00:18:00;1.40;99.90
16479;DHT22;8350;52.316;10.530;2024-01-15T00:20:27;1.40;99.90
16479;DHT22;8350;52.316;10.530;2024-01-15T00:22:54;1.40;99.90
16479;DHT22;8350;52.316;10.530;2024-01-15T00:25:22;1.40;99.90
16479;DHT22;8350;52.316;10.530;2024-01-15T00:27:51;1.40;99.90
16479;DHT22;8350;52.316;10.530;2024-01-15T00:30:21;1.30;99.90
16479;DHT22;8350;52.316;10.530;2024-01-15T00:32:50;1.30;99.90
16479;DHT22;8350;52.316;10.530;2024-01-15T00:35:18;1.40;99.90
16479;DHT22;8350;52.316;10.530;2024-01-15T00:37:47;1.40;99.90
16479;DHT22;8350;52.316;10.530;2024-01-15T00:40:16;1.30;99.90
16479;DHT22;8350;52.316;10.530;2024-01-15T00:42:42;1.40;99.90
16479;DHT22;8350;52.316;10.530;2024-01-15T00:45:12;1.40;99.90
16479;DHT22;8350;52.316;10.530;2024-01-15T00:47:38;1.40;99.90
16479;DHT22;8350;52.316;10.530;2024-01-15T00:50:06;1.40;99.90
16479;DHT22;8350;52.316;10.530;2024-01-15T00:52:35;1.40;99.90
16479;DHT22;8350;52.316;10.530;2024-01-15T00:55:02;1.40;99.90
16479;DHT22;8350;52.316;10.530;2024-01-15T00:57:29;1.30;99.90
16479;DHT22;8350;52.316;10.530;2024-01-15T00:59:56;1.40;99.90
16479;DHT22;8350;52.316;10.530;2024-01-15T01:02:23;1.40;99.90
16479;DHT22;8350;52.316;10.530;2024-01-15T01:04:50;1.40;99.90
16479;DHT22;8350;52.316;10.530;2024-01-15T01:07:17;1.40;99.90
16479;DHT22;8350;52.316;10.530;2024-01-15T01:09:46;1.30;99.90
16479;DHT22;8350;52.316;10.530;2024-01-15T01:12:14;1.30;99.90
16479;DHT22;8350;52.316;10.530;2024-01-15T01:14:41;1.40;99.90
16479;DHT22;8350;52.316;10.530;2024-01-15T01:17:08;1.40;99.90
16479;DHT22;8350;52.316;10.530;2024-01-15T01:19:35;1.40;99.90
16479;DHT22;8350;52.316;10.530;2024-01-15T01:22:02;1.30;99.90
16479;DHT22;8350;52.316;10.530;2024-01-15T01:24:30;1.30;99.90
16479;DHT22;8350;52.316;10.530;2024-01-15T01:26:59;1.30;99.90
16479;DHT22;8350;52.316;10.530;2024-01-15T01:29:28;1.30;99.90
16479;DHT22;8350;52.316;10.530;2024-01-15T01:31:57;1.30;99.90
16479;DHT22;8350;52.316;10.530;2024-01-15T01:34:27;1.20;99.90
16479;DHT22;8350;52.316;10.530;2024-01-15T01:36:55;1.20;99.90
16479;DHT22;8350;52.316;10.530;2024-01-15T01:39:22;1.20;99.90
16479;DHT22;8350;52.316;10.530;2024-01-15T01:41:49;1.20;99.90
16479;DHT22;8350;52.316;10.530;2024-01-15T01:44:17;1.20;99.90
16479;DHT22;8350;52.316;10.530;2024-01-15T01:46:44;1.20;99.90
16479;DHT22;8350;52.316;10.530;2024-01-15T01:49:12;1.30;99.90
16479;DHT22;8350;52.316;10.530;2024-01-15T01:51:39;1.30;99.90
16479;DHT22;8350;52.316;10.530;2024-01-15T01:54:06;1.30;99.90
16479;DHT22;8350;52.316;10.530;2024-01-15T01:56:35;1.40;99.90
16479;DHT22;8350;52.316;10.530;2024-01-15T01:59:05;1.40;99.90
16479;DHT22;8350;52.316;10.530;2024-01-15T02:01:34;1.40;99.90
16479;DHT22;8350;52.316;10.530;2024-01-15T02:04:01;1.40;99.90
16479;DHT22;8350;52.316;10.530;2024-01-15T02:06:28;1.40;99.90
16479;DHT22;8350;52.316;10.530;2024-01-15T02:08:55;1.40;99.90
16479;DHT22;8350;52.316;10.530;2024-01-15T02:11:24;1.40;99.90
16479;DHT22;8350;52.316;10.530;2024-01-15T02:13:53;1.40;99.90
16479;DHT22;8350;52.316;10.530;2024-01-15T02:16:20;1.50;99.90
16479;DHT22;8350;52.316;10.530;2024-01-15T02:18:49;1.50;99.90
16479;DHT22;8350;52.316;10.530;2024-01-15T02:21:16;1.50;99.90
16479;DHT22;8350;52.316;10.530;2024-01-15T02:23:44;1.50;99.90
16479;DHT22;8350;52.316;10.530;2024-01-15T02:26:11;1.50;99.90
16479;DHT22;8350;52.316;10.530;2024-01-15T02:28:39;1.50;99.90
16479;DHT22;8350;52.316;10.530;2024-01-15T02:31:07;1.50;99.90
16479;DHT22;8350;52.316;10.530;2024-01-15T02:33:37;1.50;99.90
16479;DHT22;8350;52.316;10.530;2024-01-15T02:36:04;1.50;99.90
16479;DHT22;8350;52.316;10.530;2024-01-15T02:38:31;1.50;99.90
16479;DHT22;8350;52.316;10.530;2024-01-15T02:41:00;1.60;99.90
16479;DHT22;8350;52.316;10.530;2024-01-15T02:43:27;1.60;99.90
16479;DHT22;8350;52.316;10.530;2024-01-15T02:45:54;1.50;99.90
16479;DHT22;8350;52.316;10.530;2024-01-15T02:48:21;1.60;99.90
16479;DHT22;8350;52.316;10.530;2024-01-15T02:50:48;1.60;99.90
16479;DHT22;8350;52.316;10.530;2024-01-15T02:53:15;1.70;99.90
16479;DHT22;8350;52.316;10.530;2024-01-15T02:55:42;1.70;99.90
16479;DHT22;8350;52.316;10.530;2024-01-15T02:58:16;1.70;99.90
16479;DHT22;8350;52.316;10.530;2024-01-15T03:00:43;1.70;99.90
16479;DHT22;8350;52.316;10.530;2024-01-15T03:03:10;1.70;99.90
16479;DHT22;8350;52.316;10.530;2024-01-15T03:05:37;1.80;99.90
16479;DHT22;8350;52.316;10.530;2024-01-15T03:08:03;1.80;99.90
16479;DHT22;8350;52.316;10.530;2024-01-15T03:10:30;1.80;99.90
16479;DHT22;8350;52.316;10.530;2024-01-15T03:13:01;1.90;99.90
16479;DHT22;8350;52.316;10.530;2024-01-15T03:15:29;1.90;99.90
16479;DHT22;8350;52.316;10.530;2024-01-15T03:17:56;1.90;99.90
16479;DHT22;8350;52.316;10.530;2024-01-15T03:20:23;1.90;99.90
16479;DHT22;8350;52.316;10.530;2024-01-15T03:22:52;1.90;99.90
16479;DHT22;8350;52.316;10.530;2024-01-15T03:25:19;1.90;99.90
16479;DHT22;8350;52.316;10.530;2024-01-15T03:27:46;1.90;99.90
16479;DHT22;8350;52.316;10.530;2024-01-15T03:30:14;1.90;99.90
16479;DHT22;8350;52.316;10.530;2024-01-15T03:32:42;1.90;99.90
16479;DHT22;8350;52.316;10.530;2024-01-15T03:35:12;1.90;99.90
16479;DHT22;8350;52.316;10.530;2024-01-15T03:37:40;2.00;99.90
16479;DHT22;8350;52.316;10.530;2024-01-15T03:40:08;1.90;99.90
16479;DHT22;8350;52.316;10.530;2024-01-15T03:42:35;1.90;99.90
16479;DHT22;8350;52.316;10.530;2024-01-15T03:45:05;2.00;99.90
16479;DHT22;8350;52.316;10.530;2024-01-15T03:47:31;2.00;99.90
16479;DHT22;8350;52.316;10.530;2024-01-15T03:50:00;1.90;99.90
16479;DHT22;8350;52.316;10.530;2024-01-15T03:52:27;1.90;99.90
16479;DHT22;8350;52.316;10.530;2024-01-15T03:54:55;1.90;99.90
16479;DHT22;8350;52.316;10.530;2024-01-15T03:57:22;1.90;99.90
16479;DHT22;8350;52.316;10.530;2024-01-15T03:59:49;2.00;99.90
16479;DHT22;8350;52.316;10.530;2024-01-15T04:02:16;2.00;99.90
16479;DHT22;8350;52.316;10.530;2024-01-15T04:04:43;2.00;99.90
16479;DHT22;8350;52.316;10.530;2024-01-15T04:07:11;1.90;99.90
16479;DHT22;8350;52.316;10.530;2024-01-15T04:09:38;1.90;99.90
16479;DHT22;8350;52.316;10.530;2024-01-15T04:12:08;1.80;99.90
16479;DHT22;8350;52.316;10.530;2024-01-15T04:14:43;1.80;99.90
16479;DHT22;8350;52.316;10.530;2024-01-15T04:17:10;1.70;99.90
16479;DHT22;8350;52.316;10.530;2024-01-15T04:19:37;1.70;99.90
16479;DHT22;8350;52.316;10.530;2024-01-15T04:22:05;1.70;99.90
16479;DHT22;8350;52.316;10.530;2024-01-15T04:24:33;1.70;99.90
16479;DHT22;8350;52.316;10.530;2024-01-15T04:27:00;1.70;99.90
16479;DHT22;8350;52.316;10.530;2024-01-15T04:29:27;1.70;99.90
16479;DHT22;8350;52.316;10.530;2024-01-15T04:31:54;1.80;99.90
16479;DHT22;8350;52.316;10.530;2024-01-15T04:34:21;1.70;99.90
16479;DHT22;8350;52.316;10.530;2024-01-15T04:36:48;1.80;99.90
16479;DHT22;8350;52.316;10.530;2024-01-15T04:39:15;1.80;99.90
16479;DHT22;8350;52.316;10.530;2024-01-15T04:41:43;1.80;99.90
16479;DHT22;8350;52.316;10.530;2024-01-15T04:44:10;1.80;99.90
16479;DHT22;8350;52.316;10.530;2024-01-15T04:46:37;1.80;99.90
16479;DHT22;8350;52.316;10.530;2024-01-15T04:49:07;1.80;99.90
16479;DHT22;8350;52.316;10.530;2024-01-15T04:51:34;1.90;99.90
16479;DHT22;8350;52.316;10.530;2024-01-15T04:54:01;1.90;99.90
16479;DHT22;8350;52.316;10.530;2024-01-15T04:56:28;1.90;99.90
16479;DHT22;8350;52.316;10.530;2024-01-15T04:58:57;1.90;99.90
16479;DHT22;8350;52.316;10.530;2024-01-15T05:01:24;1.90;99.90
16479;DHT22;8350;52.316;10.530;2024-01-15T05:03:51;1.90;99.90
16479;DHT22;8350;52.316;10.530;2024-01-15T05:06:18;1.90;99.90
16479;DHT22;8350;52.316;10.530;2024-01-15T05:08:46;1.90;99.90
16479;DHT22;8350;52.316;10.530;2024-01-15T05:11:13;1.90;99.90
16479;DHT22;8350;52.316;10.530;2024-01-15T05:13:40;1.90;99.90
16479;DHT22;8350;52.316;10.530;2024-01-15T05:16:09;1.90;99.90
16479;DHT22;8350;52.316;10.530;2024-01-15T05:18:38;1.90;99.90
16479;DHT22;8350;52.316;10.530;2024-01-15T05:21:05;1.90;99.90
16479;DHT22;8350;52.316;10.530;2024-01-15T05:23:35;1.90;99.90
16479;DHT22;8350;52.316;10.530;2024-01-15T05:26:02;1.90;99.90
16479;DHT22;8350;52.316;10.530;2024-01-15T05:28:29;1.90;99.90
16479;DHT22;8350;52.316;10.530;2024-01-15T05:30:56;1.90;99.90
16479;DHT22;8350;52.316;10.530;2024-01-15T05:33:24;1.80;99.90
16479;DHT22;8350;52.316;10.530;2024-01-15T05:35:56;1.70;99.90
16479;DHT22;8350;52.316;10.530;2024-01-15T05:38:24;1.60;99.90
16479;DHT22;8350;52.316;10.530;2024-01-15T05:40:51;1.60;99.90
16479;DHT22;8350;52.316;10.530;2024-01-15T05:43:18;1.60;99.90
16479;DHT22;8350;52.316;10.530;2024-01-15T05:45:46;1.60;99.90
16479;DHT22;8350;52.316;10.530;2024-01-15T05:48:13;1.60;99.90
16479;DHT22;8350;52.316;10.530;2024-01-15T05:50:42;1.60;99.90
16479;DHT22;8350;52.316;10.530;2024-01-15T05:53:09;1.60;99.90
16479;DHT22;8350;52.316;10.530;2024-01-15T05:55:38;1.60;99.90
16479;DHT22;8350;52.316;10.530;2024-01-15T05:58:05;1.60;99.90
16479;DHT22;8350;52.316;10.530;2024-01-15T06:00:32;1.70;99.90
16479;DHT22;8350;52.316;10.530;2024-01-15T06:03:01;1.70;99.90
16479;DHT22;8350;52.316;10.530;2024-01-15T06:05:28;1.70;99.90
16479;DHT22;8350;52.316;10.530;2024-01-15T06:07:56;1.70;99.90
16479;DHT22;8350;52.316;10.530;2024-01-15T06:10:24;1.80;99.90
16479;DHT22;8350;52.316;10.530;2024-01-15T06:12:52;1.80;99.90
16479;DHT22;8350;52.316;10.530;2024-01-15T06:15:19;1.80;99.90
16479;DHT22;8350;52.316;10.530;2024-01-15T06:17:46;1.70;99.90
16479;DHT22;8350;52.316;10.530;2024-01-15T06:20:13;1.70;99.90
16479;DHT22;8350;52.316;10.530;2024-01-15T06:22:40;1.80;99.90
16479;DHT22;8350;52.316;10.530;2024-01-15T06:25:09;1.70;99.90
16479;DHT22;8350;52.316;10.530;2024-01-15T06:27:35;1.70;99.90
16479;DHT22;8350;52.316;10.530;2024-01-15T06:30:03;1.60;99.90
16479;DHT22;8350;52.316;10.530;2024-01-15T06:32:30;1.60;99.90
16479;DHT22;8350;52.316;10.530;2024-01-15T06:34:57;1.60;99.90
16479;DHT22;8350;52.316;10.530;2024-01-15T06:37:24;1.50;99.90
16479;DHT22;8350;52.316;10.530;2024-01-15T06:39:51;1.50;99.90
16479;DHT22;8350;52.316;10.530;2024-01-15T06:42:19;1.50;99.90
16479;DHT22;8350;52.316;10.530;2024-01-15T06:44:47;1.50;99.90
16479;DHT22;8350;52.316;10.530;2024-01-15T06:47:14;1.40;99.90
16479;DHT22;8350;52.316;10.530;2024-01-15T06:49:43;1.40;99.90
16479;DHT22;8350;52.316;10.530;2024-01-15T06:52:10;1.40;99.90
16479;DHT22;8350;52.316;10.530;2024-01-15T06:54:37;1.30;99.90
16479;DHT22;8350;52.316;10.530;2024-01-15T06:57:05;1.30;99.90
16479;DHT22;8350;52.316;10.530;2024-01-15T06:59:33;1.40;99.90
16479;DHT22;8350;52.316;10.530;2024-01-15T07:02:01;1.30;99.90
16479;DHT22;8350;52.316;10.530;2024-01-15T07:04:28;1.30;99.90
16479;DHT22;8350;52.316;10.530;2024-01-15T07:06:55;1.40;99.90
16479;DHT22;8350;52.316;10.530;2024-01-15T07:09:22;1.40;99.90
16479;DHT22;8350;52.316;10.530;2024-01-15T07:11:49;1.40;99.90
16479;DHT22;8350;52.316;10.530;2024-01-15T07:14:17;1.40;99.90
16479;DHT22;8350;52.316;10.530;2024-01-15T07:16:45;1.40;99.90
16479;DHT22;8350;52.316;10.530;2024-01-15T07:19:12;1.40;99.90
16479;DHT22;8350;52.316;10.530;2024-01-15T07:21:42;1.40;99.90
16479;DHT22;8350;52.316;10.530;2024-01-15T07:24:09;1.40;99.90
16479;DHT22;8350;52.316;10.530;2024-01-15T07:26:39;1.40;99.90
16479;DHT22;8350;52.316;10.530;2024-01-15T07:29:06;1.40;99.90
16479;DHT22;8350;52.316;10.530;2024-01-15T07:31:34;1.40;99.90
16479;DHT22;8350;52.316;10.530;2024-01-15T07:34:02;1.40;99.90
16479;DHT22;8350;52.316;10.530;2024-01-15T07:36:29;1.40;99.90
16479;DHT22;8350;52.316;10.530;2024-01-15T07:38:57;1.30;99.90
16479;DHT22;8350;52.316;10.530;2024-01-15T07:41:24;1.30;99.90
16479;DHT22;8350;52.316;10.530;2024-01-15T07:43:51;1.20;99.90
16479;DHT22;8350;52.316;10.530;2024-01-15T07:46:18;1.20;99.90
16479;DHT22;8350;52.316;10.530;2024-01-15T07:48:45;1.20;99.90
16479;DHT22;8350;52.316;10.530;2024-01-15T07:51:13;1.10;99.90
16479;DHT22;8350;52.316;10.530;2024-01-15T07:53:40;1.10;99.90
16479;DHT22;8350;52.316;10.530;2024-01-15T07:56:07;1.20;99.90
16479;DHT22;8350;52.316;10.530;2024-01-15T07:58:37;1.20;99.90
16479;DHT22;8350;52.316;10.530;2024-01-15T08:01:04;1.20;99.90
16479;DHT22;8350;52.316;10.530;2024-01-15T08:03:31;1.30;99.90
16479;DHT22;8350;52.316;10.530;2024-01-15T08:05:59;1.30;99.90
16479;DHT22;8350;52.316;10.530;2024-01-15T08:08:27;1.30;99.90
16479;DHT22;8350;52.316;10.530;2024-01-15T08:10:54;1.30;99.90
16479;DHT22;8350;52.316;10.530;2024-01-15T08:13:21;1.20;99.90
16479;DHT22;8350;52.316;10.530;2024-01-15T08:15:48;1.30;99.90
16479;DHT22;8350;52.316;10.530;2024-01-15T08:18:15;1.30;99.90
16479;DHT22;8350;52.316;10.530;2024-01-15T08:20:42;1.30;99.90
16479;DHT22;8350;52.316;10.530;2024-01-15T08:23:09;1.30;99.90
16479;DHT22;8350;52.316;10.530;2024-01-15T08:25:38;1.30;99.90
16479;DHT22;8350;52.316;10.530;2024-01-15T08:28:05;1.40;99.90
16479;DHT22;8350;52.316;10.530;2024-01-15T08:30:34;1.40;99.90
16479;DHT22;8350;52.316;10.530;2024-01-15T08:33:01;1.40;99.90
16479;DHT22;8350;52.316;10.530;2024-01-15T08:35:28;1.50;99.90
16479;DHT22;8350;52.316;10.530;2024-01-15T08:37:55;1.50;99.90
16479;DHT22;8350;52.316;10.530;2024-01-15T08:40:24;1.50;99.90
16479;DHT22;8350;52.316;10.530;2024-01-15T08:42:57;1.50;99.90
16479;DHT22;8350;52.316;10.530;2024-01-15T08:45:27;1.50;99.90
16479;DHT22;8350;52.316;10.530;2024-01-15T08:47:54;1.50;99.90
16479;DHT22;8350;52.316;10.530;2024-01-15T08:50:21;1.40;99.90
16479;DHT22;8350;52.316;10.530;2024-01-15T08:52:48;1.40;99.90
16479;DHT22;8350;52.316;10.530;2024-01-15T08:55:15;1.30;99.90
16479;DHT22;8350;52.316;10.530;2024-01-15T08:57:42;1.30;99.90
16479;DHT22;8350;52.316;10.530;2024-01-15T09:00:13;1.30;99.90
16479;DHT22;8350;52.316;10.530;2024-01-15T09:02:40;1.30;99.90
16479;DHT22;8350;52.316;10.530;2024-01-15T09:05:07;1.30;99.90
16479;DHT22;8350;52.316;10.530;2024-01-15T09:07:34;1.30;99.90
16479;DHT22;8350;52.316;10.530;2024-01-15T09:10:02;1.30;99.90
16479;DHT22;8350;52.316;10.530;2024-01-15T09:12:29;1.20;99.90
16479;DHT22;8350;52.316;10.530;2024-01-15T09:14:56;1.20;99.90
16479;DHT22;8350;52.316;10.530;2024-01-15T09:17:24;1.30;99.90
16479;DHT22;8350;52.316;10.530;2024-01-15T09:19:53;1.30;99.90
16479;DHT22;8350;52.316;10.530;2024-01-15T09:22:20;1.40;99.90
16479;DHT22;8350;52.316;10.530;2024-01-15T09:24:47;1.40;99.90
16479;DHT22;8350;52.316;10.530;2024-01-15T09:27:17;1.50;99.90
16479;DHT22;8350;52.316;10.530;2024-01-15T09:29:45;1.50;99.90
16479;DHT22;8350;52.316;10.530;2024-01-15T09:32:12;1.50;99.90
16479;DHT22;8350;52.316;10.530;2024-01-15T09:34:41;1.40;99.90
16479;DHT22;8350;52.316;10.530;2024-01-15T09:37:08;1.40;99.90
16479;DHT22;8350;52.316;10.530;2024-01-15T09:39:35;1.30;99.90
16479;DHT22;8350;52.316;10.530;2024-01-15T09:42:06;1.20;99.90
16479;DHT22;8350;52.316;10.530;2024-01-15T09:44:34;1.20;99.90
16479;DHT22;8350;52.316;10.530;2024-01-15T09:47:03;1.30;99.90
16479;DHT22;8350;52.316;10.530;2024-01-15T09:49:30;1.30;99.90
16479;DHT22;8350;52.316;10.530;2024-01-15T09:51:59;1.40;99.90
16479;DHT22;8350;52.316;10.530;2024-01-15T09:54:27;1.40;99.90
16479;DHT22;8350;52.316;10.530;2024-01-15T09:56:54;1.50;99.90
16479;DHT22;8350;52.316;10.530;2024-01-15T09:59:22;1.50;99.90
16479;DHT22;8350;52.316;10.530;2024-01-15T10:01:52;1.60;99.90
16479;DHT22;8350;52.316;10.530;2024-01-15T10:04:20;1.60;99.90
16479;DHT22;8350;52.316;10.530;2024-01-15T10:06:47;1.70;99.90
16479;DHT22;8350;52.316;10.530;2024-01-15T10:09:18;1.70;99.90
16479;DHT22;8350;52.316;10.530;2024-01-15T10:11:45;1.80;99.90
16479;DHT22;8350;52.316;10.530;2024-01-15T10:14:21;1.80;99.90
16479;DHT22;8350;52.316;10.530;2024-01-15T10:16:48;1.80;99.90
16479;DHT22;8350;52.316;10.530;2024-01-15T10:19:15;1.80;99.90
16479;DHT22;8350;52.316;10.530;2024-01-15T10:21:42;1.80;99.90
16479;DHT22;8350;52.316;10.530;2024-01-15T10:24:09;1.80;99.90
16479;DHT22;8350;52.316;10.530;2024-01-15T10:26:38;1.80;99.90
16479;DHT22;8350;52.316;10.530;2024-01-15T10:29:04;1.90;99.90
16479;DHT22;8350;52.316;10.530;2024-01-15T10:31:31;1.90;99.90
16479;DHT22;8350;52.316;10.530;2024-01-15T10:34:10;2.00;99.90
16479;DHT22;8350;52.316;10.530;2024-01-15T10:36:39;2.00;99.90
16479;DHT22;8350;52.316;10.530;2024-01-15T10:39:07;2.10;99.90
16479;DHT22;8350;52.316;10.530;2024-01-15T10:41:39;2.10;99.90
16479;DHT22;8350;52.316;10.530;2024-01-15T10:44:06;2.10;99.90
16479;DHT22;8350;52.316;10.530;2024-01-15T10:46:34;2.10;99.90
16479;DHT22;8350;52.316;10.530;2024-01-15T10:49:01;2.20;99.90
16479;DHT22;8350;52.316;10.530;2024-01-15T10:51:30;2.20;99.90
16479;DHT22;8350;52.316;10.530;2024-01-15T10:53:57;2.20;99.90
16479;DHT22;8350;52.316;10.530;2024-01-15T10:56:27;2.20;99.90
16479;DHT22;8350;52.316;10.530;2024-01-15T10:58:58;2.30;99.90
16479;DHT22;8350;52.316;10.530;2024-01-15T11:01:26;2.30;99.90
16479;DHT22;8350;52.316;10.530;2024-01-15T11:03:54;2.30;99.90
16479;DHT22;8350;52.316;10.530;2024-01-15T11:06:24;2.30;99.90
16479;DHT22;8350;52.316;10.530;2024-01-15T11:08:53;2.30;99.90
16479;DHT22;8350;52.316;10.530;2024-01-15T11:11:30;2.20;99.90
16479;DHT22;8350;52.316;10.530;2024-01-15T11:13:58;2.20;99.90
16479;DHT22;8350;52.316;10.530;2024-01-15T11:16:54;2.10;99.90
16479;DHT22;8350;52.316;10.530;2024-01-15T11:19:22;2.10;99.90
16479;DHT22;8350;52.316;10.530;2024-01-15T11:21:52;2.00;99.90
16479;DHT22;8350;52.316;10.530;2024-01-15T11:24:38;2.00;99.90
16479;DHT22;8350;52.316;10.530;2024-01-15T11:27:06;2.00;99.90
16479;DHT22;8350;52.316;10.530;2024-01-15T11:29:36;2.00;99.90
16479;DHT22;8350;52.316;10.530;2024-01-15T11:32:04;2.10;99.90
16479;DHT22;8350;52.316;10.530;2024-01-15T11:34:54;2.10;99.90
16479;DHT22;8350;52.316;10.530;2024-01-15T11:37:23;2.20;99.90
16479;DHT22;8350;52.316;10.530;2024-01-15T11:39:52;2.20;99.90
16479;DHT22;8350;52.316;10.530;2024-01-15T11:42:20;2.30;99.90
16479;DHT22;8350;52.316;10.530;2024-01-15T11:44:50;2.30;99.90
16479;DHT22;8350;52.316;10.530;2024-01-15T11:50:07;2.30;99.90
16479;DHT22;8350;52.316;10.530;2024-01-15T11:52:35;2.30;99.90
16479;DHT22;8350;52.316;10.530;2024-01-15T11:55:11;2.20;99.90
16479;DHT22;8350;52.316;10.530;2024-01-15T11:57:49;2.20;99.90
16479;DHT22;8350;52.316;10.530;2024-01-15T12:00:20;2.10;99.90
16479;DHT22;8350;52.316;10.530;2024-01-15T12:02:50;2.10;99.90
16479;DHT22;8350;52.316;10.530;2024-01-15T12:05:20;2.00;99.90
16479;DHT22;8350;52.316;10.530;2024-01-15T12:07:49;2.00;99.90
16479;DHT22;8350;52.316;10.530;2024-01-15T12:10:20;2.00;99.90
16479;DHT22;8350;52.316;10.530;2024-01-15T12:13:04;2.00;99.90
16479;DHT22;8350;52.316;10.530;2024-01-15T12:15:33;2.10;99.90
16479;DHT22;8350;52.316;10.530;2024-01-15T12:18:01;2.10;99.90
16479;DHT22;8350;52.316;10.530;2024-01-15T12:20:29;2.20;99.90
16479;DHT22;8350;52.316;10.530;2024-01-15T12:22:57;2.20;99.90
16479;DHT22;8350;52.316;10.530;2024-01-15T12:25:24;2.20;99.90
16479;DHT22;8350;52.316;10.530;2024-01-15T12:27:54;2.20;99.90
16479;DHT22;8350;52.316;10.530;2024-01-15T12:30:21;2.30;99.90
16479;DHT22;8350;52.316;10.530;2024-01-15T12:32:51;2.30;99.90
16479;DHT22;8350;52.316;10.530;2024-01-15T12:35:18;2.30;99.90
16479;DHT22;8350;52.316;10.530;2024-01-15T12:37:45;2.30;99.90
16479;DHT22;8350;52.316;10.530;2024-01-15T12:40:13;2.30;99.90
16479;DHT22;8350;52.316;10.530;2024-01-15T12:42:41;2.40;99.90
16479;DHT22;8350;52.316;10.530;2024-01-15T12:45:11;2.30;99.90
16479;DHT22;8350;52.316;10.530;2024-01-15T12:47:40;2.30;99.90
16479;DHT22;8350;52.316;10.530;2024-01-15T12:50:10;2.30;99.90
16479;DHT22;8350;52.316;10.530;2024-01-15T12:52:40;2.30;99.90
16479;DHT22;8350;52.316;10.530;2024-01-15T12:55:09;2.30;99.90
16479;DHT22;8350;52.316;10.530;2024-01-15T12:57:36;2.30;99.90
16479;DHT22;8350;52.316;10.530;2024-01-15T13:00:04;2.30;99.90
16479;DHT22;8350;52.316;10.530;2024-01-15T13:02:33;2.30;99.90
16479;DHT22;8350;52.316;10.530;2024-01-15T13:05:00;2.30;99.90
16479;DHT22;8350;52.316;10.530;2024-01-15T13:07:30;2.20;99.90
16479;DHT22;8350;52.316;10.530;2024-01-15T13:09:57;2.20;99.90
16479;DHT22;8350;52.316;10.530;2024-01-15T13:12:24;2.20;99.90
16479;DHT22;8350;52.316;10.530;2024-01-15T13:14:51;2.20;99.90
16479;DHT22;8350;52.316;10.530;2024-01-15T13:17:18;2.20;99.90
16479;DHT22;8350;52.316;10.530;2024-01-15T13:19:46;2.30;99.90
16479;DHT22;8350;52.316;10.530;2024-01-15T13:22:14;2.30;99.90
16479;DHT22;8350;52.316;10.530;2024-01-15T13:24:43;2.30;99.90
16479;DHT22;8350;52.316;10.530;2024-01-15T13:27:10;2.30;99.90
16479;DHT22;8350;52.316;10.530;2024-01-15T13:29:37;2.30;99.90
16479;DHT22;8350;52.316;10.530;2024-01-15T13:32:04;2.20;99.90
16479;DHT22;8350;52.316;10.530;2024-01-15T13:34:31;2.20;99.90
16479;DHT22;8350;52.316;10.530;2024-01-15T13:36:58;2.20;99.90
16479;DHT22;8350;52.316;10.530;2024-01-15T13:39:25;2.20;99.90
16479;DHT22;8350;52.316;10.530;2024-01-15T13:41:54;2.30;99.90
16479;DHT22;8350;52.316;10.530;2024-01-15T13:44:21;2.30;99.90
16479;DHT22;8350;52.316;10.530;2024-01-15T13:46:51;2.30;99.90
16479;DHT22;8350;52.316;10.530;2024-01-15T13:49:18;2.30;99.90
16479;DHT22;8350;52.316;10.530;2024-01-15T13:51:45;2.30;99.90
16479;DHT22;8350;52.316;10.530;2024-01-15T13:54:12;2.30;99.90
16479;DHT22;8350;52.316;10.530;2024-01-15T13:56:39;2.30;99.90
16479;DHT22;8350;52.316;10.530;2024-01-15T13:59:08;2.20;99.90
16479;DHT22;8350;52.316;10.530;2024-01-15T14:01:37;2.20;99.90
16479;DHT22;8350;52.316;10.530;2024-01-15T14:04:04;2.10;99.90
16479;DHT22;8350;52.316;10.530;2024-01-15T14:06:31;2.00;99.90
16479;DHT22;8350;52.316;10.530;2024-01-15T14:08:58;1.90;99.90
16479;DHT22;8350;52.316;10.530;2024-01-15T14:11:25;1.80;99.90
16479;DHT22;8350;52.316;10.530;2024-01-15T14:13:52;1.70;99.90
16479;DHT22;8350;52.316;10.530;2024-01-15T14:16:21;1.70;99.90
16479;DHT22;8350;52.316;10.530;2024-01-15T14:18:48;1.60;99.90
16479;DHT22;8350;52.316;10.530;2024-01-15T14:21:14;1.60;99.90
16479;DHT22;8350;52.316;10.530;2024-01-15T14:23:41;1.50;99.90
16479;DHT22;8350;52.316;10.530;2024-01-15T14:26:16;1.50;99.90
16479;DHT22;8350;52.316;10.530;2024-01-15T14:28:44;1.50;99.90
16479;DHT22;8350;52.316;10.530;2024-01-15T14:31:16;1.50;99.90
16479;DHT22;8350;52.316;10.530;2024-01-15T14:33:47;1.50;99.90
16479;DHT22;8350;52.316;10.530;2024-01-15T14:36:14;1.50;99.90
16479;DHT22;8350;52.316;10.530;2024-01-15T14:38:41;1.50;99.90
16479;DHT22;8350;52.316;10.530;2024-01-15T14:41:08;1.50;99.90
16479;DHT22;8350;52.316;10.530;2024-01-15T14:43:35;1.50;99.90
16479;DHT22;8350;52.316;10.530;2024-01-15T14:46:02;1.50;99.90
16479;DHT22;8350;52.316;10.530;2024-01-15T14:48:29;1.50;99.90
16479;DHT22;8350;52.316;10.530;2024-01-15T14:51:01;1.50;99.90
16479;DHT22;8350;52.316;10.530;2024-01-15T14:53:31;1.50;99.90
16479;DHT22;8350;52.316;10.530;2024-01-15T14:55:58;1.50;99.90
16479;DHT22;8350;52.316;10.530;2024-01-15T14:58:25;1.60;99.90
16479;DHT22;8350;52.316;10.530;2024-01-15T15:00:52;1.60;99.90
16479;DHT22;8350;52.316;10.530;2024-01-15T15:03:19;1.50;99.90
16479;DHT22;8350;52.316;10.530;2024-01-15T15:05:46;1.50;99.90
16479;DHT22;8350;52.316;10.530;2024-01-15T15:08:15;1.50;99.90
16479;DHT22;8350;52.316;10.530;2024-01-15T15:10:42;1.40;99.90
16479;DHT22;8350;52.316;10.530;2024-01-15T15:13:09;1.40;99.90
16479;DHT22;8350;52.316;10.530;2024-01-15T15:15:36;1.30;99.90
16479;DHT22;8350;52.316;10.530;2024-01-15T15:18:03;1.30;99.90
16479;DHT22;8350;52.316;10.530;2024-01-15T15:20:31;1.40;99.90
16479;DHT22;8350;52.316;10.530;2024-01-15T15:22:59;1.30;99.90
16479;DHT22;8350;52.316;10.530;2024-01-15T15:25:28;1.30;99.90
16479;DHT22;8350;52.316;10.530;2024-01-15T15:27:55;1.30;99.90
16479;DHT22;8350;52.316;10.530;2024-01-15T15:30:24;1.20;99.90
16479;DHT22;8350;52.316;10.530;2024-01-15T15:32:51;1.20;99.90
16479;DHT22;8350;52.316;10.530;2024-01-15T15:35:19;1.20;99.90
16479;DHT22;8350;52.316;10.530;2024-01-15T15:37:46;1.20;99.90
16479;DHT22;8350;52.316;10.530;2024-01-15T15:40:12;1.20;99.90
16479;DHT22;8350;52.316;10.530;2024-01-15T15:42:41;1.20;99.90
16479;DHT22;8350;52.316;10.530;2024-01-15T15:45:08;1.20;99.90
16479;DHT22;8350;52.316;10.530;2024-01-15T15:47:36;1.30;99.90
16479;DHT22;8350;52.316;10.530;2024-01-15T15:50:03;1.20;99.90
16479;DHT22;8350;52.316;10.530;2024-01-15T15:52:30;1.20;99.90